Time;durP1;ratioP1;P1;durP2;ratioP2;P2;SDS_P1;SDS_P2;PMS_P1;PMS_P2;Temp;Humidity;BMP_temperature;BMP_pressure;BME280_temperature;BME280_humidity;BME280_pressure;Samples;Min_cycle;Max_cycle;Signal;HPM_P1;HPM_P2
2020/12/19 00:00:33;;;;;;;;;;;;;;;;;;5050143;28;1077;-62
2020/12/19 00:02:58;;;;;;;;;;;;;;;;;;5049461;28;982;-63
2020/12/19 00:05:23;;;;;;;;;;;;;;;;;;5048985;28;938;-64
2020/12/19 00:07:48;;;;;;;;;;;;;;;;;;5049116;28;1097;-66
2020/12/19 00:10:13;;;;;;;;;;;;;;;;;;5050035;28;1129;-65
2020/12/19 00:12:38;;;;;;;;;;;;;;;;;;5049138;28;1963;-64
2020/12/19 00:15:04;;;;;;;;;;;;;;;;;;5049314;28;1069;-65
2020/12/19 00:17:29;;;;;;;;;;;;;;;;;;5049261;28;1049;-64
2020/12/19 00:19:54;;;;;;;;;;;;;;;;;;5045295;28;1133;-66
2020/12/19 00:22:21;;;;;;;;;;;;;;;;;;5039656;28;1125;-65
2020/12/19 00:24:46;;;;;;;;;;;;;;;;;;5048987;28;1045;-66
2020/12/19 00:27:11;;;;;;;;;;;;;;;;;;5049416;28;1132;-65
2020/12/19 00:29:37;;;;;;;;;;;;;;;;;;5049053;28;1077;-63
2020/12/19 00:32:03;;;;;;;;;;;;;;;;;;5048670;28;1890;-62
2020/12/19 00:34:28;;;;;;;;;;;;;;;;;;5049115;28;1144;-63
2020/12/19 00:36:53;;;;;;;;;;;;;;;;;;5051382;28;1062;-63
2020/12/19 00:39:18;;;;;;;;;;;;;;;;;;5049226;28;1112;-62
2020/12/19 00:41:45;;;;;;;;;;;;;;;;;;5049715;28;1073;-62
2020/12/19 00:44:10;;;;;;;;;;;;;;;;;;5049085;28;1232;-63
2020/12/19 00:46:35;;;;;;;;;;;;;;;;;;5048308;28;1061;-63
2020/12/19 00:49:00;;;;;;;;;;;;;;;;;;5048365;28;1036;-63
2020/12/19 00:51:25;;;;;;;;;;;;;;;;;;5048179;28;1886;-63
2020/12/19 00:53:51;;;;;;;;;;;;;;;;;;5034173;28;1074;-63
2020/12/19 00:56:16;;;;;;;;;;;;;;;;;;5049599;28;1143;-64
2020/12/19 00:58:41;;;;;;;;;;;;;;;;;;5048592;28;1091;-63
2020/12/19 01:01:06;;;;;;;;;;;;;;;;;;5048433;28;1109;-61
2020/12/19 01:03:31;;;;;;;;;;;;;;;;;;5048149;28;1140;-61
2020/12/19 01:05:57;;;;;;;;;;;;;;;;;;5048504;28;1128;-62
2020/12/19 01:08:22;;;;;;;;;;;;;;;;;;5048446;28;930;-62
2020/12/19 01:10:47;;;;;;;;;;;;;;;;;;5045954;28;1894;-65
2020/12/19 01:13:12;;;;;;;;;;;;;;;;;;5037704;28;1090;-63
2020/12/19 01:15:37;;;;;;;;;;;;;;;;;;5030490;28;1192;-61
2020/12/19 01:18:03;;;;;;;;;;;;;;;;;;5028305;28;1074;-60
2020/12/19 01:20:28;;;;;;;;;;;;;;;;;;5028277;28;1093;-63
2020/12/19 01:22:53;;;;;;;;;;;;;;;;;;5042781;28;1054;-62
2020/12/19 01:25:18;;;;;;;;;;;;;;;;;;5030079;28;1109;-63
2020/12/19 01:27:43;;;;;;;;;;;;;;;;;;5048699;28;998;-65
2020/12/19 01:30:08;;;;;;;;;;;;;;;;;;5048176;28;1160;-64
2020/12/19 01:32:33;;;;;;;;;;;;;;;;;;5038414;28;1894;-62
2020/12/19 01:34:59;;;;;;;;;;;;;;;;;;5044562;28;1058;-63
2020/12/19 01:37:24;;;;;;;;;;;;;;;;;;5048558;28;1120;-63
2020/12/19 01:39:49;;;;;;;;;;;;;;;;;;5048335;28;1053;-62
2020/12/19 01:42:14;;;;;;;;;;;;;;;;;;5041241;28;1749;-62
2020/12/19 01:44:39;;;;;;;;;;;;;;;;;;5039908;28;1105;-61
2020/12/19 01:47:04;;;;;;;;;;;;;;;;;;5045623;28;1493;-61
2020/12/19 01:49:30;;;;;;;;;;;;;;;;;;5026708;28;1542;-62
2020/12/19 01:51:55;;;;;;;;;;;;;;;;;;5026617;28;1886;-59
2020/12/19 01:54:20;;;;;;;;;;;;;;;;;;5026839;28;1423;-61
2020/12/19 01:56:45;;;;;;;;;;;;;;;;;;5027562;28;875;-60
2020/12/19 01:59:10;;;;;;;;;;;;;;;;;;5030462;28;1128;-60
2020/12/19 02:01:35;;;;;;;;;;;;;;;;;;5028882;28;1491;-63
2020/12/19 02:04:00;;;;;;;;;;;;;;;;;;5034405;28;1420;-63
2020/12/19 02:06:26;;;;;;;;;;;;;;;;;;5030508;28;853;-61
2020/12/19 02:08:52;;;;;;;;;;;;;;;;;;5030064;28;1604;-61
2020/12/19 02:11:18;;;;;;;;;;;;;;;;;;5032155;28;1894;-64
2020/12/19 02:13:43;;;;;;;;;;;;;;;;;;5032674;28;906;-64
2020/12/19 02:16:08;;;;;;;;;;;;;;;;;;5031163;28;1363;-64
2020/12/19 02:18:33;;;;;;;;;;;;;;;;;;5040312;28;1384;-63
2020/12/19 02:20:58;;;;;;;;;;;;;;;;;;5050883;28;961;-64
2020/12/19 02:23:24;;;;;;;;;;;;;;;;;;5050623;28;886;-64
2020/12/19 02:25:49;;;;;;;;;;;;;;;;;;5049526;28;1439;-63
2020/12/19 02:28:14;;;;;;;;;;;;;;;;;;5032580;28;839;-64
2020/12/19 02:30:39;;;;;;;;;;;;;;;;;;5030615;28;1952;-64
2020/12/19 02:33:04;;;;;;;;;;;;;;;;;;5029326;28;1482;-63
2020/12/19 02:35:29;;;;;;;;;;;;;;;;;;5043041;28;1553;-66
2020/12/19 02:37:54;;;;;;;;;;;;;;;;;;5034241;28;1650;-63
2020/12/19 02:40:20;;;;;;;;;;;;;;;;;;5035100;28;1430;-64
2020/12/19 02:42:45;;;;;;;;;;;;;;;;;;5031319;28;1546;-65
2020/12/19 02:45:10;;;;;;;;;;;;;;;;;;5029584;28;810;-62
2020/12/19 02:47:35;;;;;;;;;;;;;;;;;;5034495;28;891;-64
2020/12/19 02:50:00;;;;;;;;;;;;;;;;;;5049307;28;1423;-64
2020/12/19 02:52:26;;;;;;;;;;;;;;;;;;5038127;28;1953;-64
2020/12/19 02:54:51;;;;;;;;;;;;;;;;;;5029644;28;807;-63
2020/12/19 02:57:16;;;;;;;;;;;;;;;;;;5030117;28;1629;-63
2020/12/19 02:59:41;;;;;;;;;;;;;;;;;;5044328;28;1376;-63
2020/12/19 03:02:06;;;;;;;;;;;;;;;;;;5029893;28;1575;-63
2020/12/19 03:04:31;;;;;;;;;;;;;;;;;;5031179;28;890;-63
2020/12/19 03:06:57;;;;;;;;;;;;;;;;;;5030001;28;890;-62
2020/12/19 03:09:22;;;;;;;;;;;;;;;;;;5030595;28;922;-63
2020/12/19 03:11:47;;;;;;;;;;;;;;;;;;5038373;28;1913;-64
2020/12/19 03:14:12;;;;;;;;;;;;;;;;;;5051081;28;826;-63
2020/12/19 03:16:37;;;;;;;;;;;;;;;;;;5039000;28;1621;-62
2020/12/19 03:19:02;;;;;;;;;;;;;;;;;;5030455;28;1393;-63
2020/12/19 03:21:28;;;;;;;;;;;;;;;;;;5027098;28;1535;-63
2020/12/19 03:23:53;;;;;;;;;;;;;;;;;;5033309;28;1434;-62
2020/12/19 03:26:18;;;;;;;;;;;;;;;;;;5032369;28;1519;-64
2020/12/19 03:28:43;;;;;;;;;;;;;;;;;;5049172;28;954;-62
2020/12/19 03:31:08;;;;;;;;;;;;;;;;;;5048713;28;1894;-64
2020/12/19 03:33:33;;;;;;;;;;;;;;;;;;5043390;28;1652;-61
2020/12/19 03:35:59;;;;;;;;;;;;;;;;;;5047435;28;1419;-63
2020/12/19 03:38:24;;;;;;;;;;;;;;;;;;5043532;28;1416;-63
2020/12/19 03:40:49;;;;;;;;;;;;;;;;;;5029325;28;1613;-65
2020/12/19 03:43:14;;;;;;;;;;;;;;;;;;5028479;28;1465;-63
2020/12/19 03:45:40;;;;;;;;;;;;;;;;;;5028793;28;1604;-63
2020/12/19 03:48:05;;;;;;;;;;;;;;;;;;5027679;28;1596;-62
2020/12/19 03:50:30;;;;;;;;;;;;;;;;;;5028088;28;1375;-63
2020/12/19 03:52:55;;;;;;;;;;;;;;;;;;5027715;28;1882;-63
2020/12/19 03:55:20;;;;;;;;;;;;;;;;;;5027724;28;1554;-63
2020/12/19 03:57:45;;;;;;;;;;;;;;;;;;5029368;28;938;-62
2020/12/19 04:00:10;;;;;;;;;;;;;;;;;;5028960;28;882;-61
2020/12/19 04:02:36;;;;;;;;;;;;;;;;;;5028887;28;1408;-62
2020/12/19 04:05:01;;;;;;;;;;;;;;;;;;5028818;28;1593;-62
2020/12/19 04:07:26;;;;;;;;;;;;;;;;;;5028892;28;859;-62
2020/12/19 04:09:51;;;;;;;;;;;;;;;;;;5026953;28;1485;-62
2020/12/19 04:12:17;;;;;;;;;;;;;;;;;;5029966;28;1874;-61
2020/12/19 04:14:42;;;;;;;;;;;;;;;;;;5029076;28;886;-61
2020/12/19 04:17:07;;;;;;;;;;;;;;;;;;5029097;28;1485;-63
2020/12/19 04:19:33;;;;;;;;;;;;;;;;;;5028348;28;1643;-62
2020/12/19 04:21:58;;;;;;;;;;;;;;;;;;5030457;28;1753;-62
2020/12/19 04:24:23;;;;;;;;;;;;;;;;;;5048493;28;878;-63
2020/12/19 04:26:48;;;;;;;;;;;;;;;;;;5047205;28;1587;-63
2020/12/19 04:29:13;;;;;;;;;;;;;;;;;;5031240;28;1117;-61
2020/12/19 04:31:39;;;;;;;;;;;;;;;;;;5028949;28;1890;-62
2020/12/19 04:34:04;;;;;;;;;;;;;;;;;;5028215;28;1729;-63
2020/12/19 04:36:29;;;;;;;;;;;;;;;;;;5044674;28;1034;-62
2020/12/19 04:38:54;;;;;;;;;;;;;;;;;;5033739;28;1439;-60
2020/12/19 04:41:19;;;;;;;;;;;;;;;;;;5028110;28;1613;-64
2020/12/19 04:43:44;;;;;;;;;;;;;;;;;;5042425;28;1399;-62
2020/12/19 04:46:10;;;;;;;;;;;;;;;;;;5033673;28;1482;-61
2020/12/19 04:48:35;;;;;;;;;;;;;;;;;;5036399;28;1407;-62
2020/12/19 04:51:00;;;;;;;;;;;;;;;;;;5026628;28;1890;-63
2020/12/19 04:53:25;;;;;;;;;;;;;;;;;;5041197;28;1445;-63
2020/12/19 04:55:51;;;;;;;;;;;;;;;;;;5027734;28;1480;-62
2020/12/19 04:58:16;;;;;;;;;;;;;;;;;;5028515;28;1381;-61
2020/12/19 05:00:41;;;;;;;;;;;;;;;;;;5027549;28;1532;-61
2020/12/19 05:03:06;;;;;;;;;;;;;;;;;;5028079;28;1439;-60
2020/12/19 05:05:31;;;;;;;;;;;;;;;;;;5032842;28;1599;-60
2020/12/19 05:07:56;;;;;;;;;;;;;;;;;;5034452;28;1489;-60
2020/12/19 05:10:22;;;;;;;;;;;;;;;;;;5026315;28;1620;-60
2020/12/19 05:12:47;;;;;;;;;;;;;;;;;;5044043;28;1907;-61
2020/12/19 05:15:12;;;;;;;;;;;;;;;;;;5041619;28;1493;-60
2020/12/19 05:17:37;;;;;;;;;;;;;;;;;;5036913;28;1424;-62
2020/12/19 05:20:02;;;;;;;;;;;;;;;;;;5039480;28;1555;-65
2020/12/19 05:22:27;;;;;;;;;;;;;;;;;;5033622;28;1589;-62
2020/12/19 05:24:53;;;;;;;;;;;;;;;;;;5036376;28;1474;-63
2020/12/19 05:27:18;;;;;;;;;;;;;;;;;;5027960;28;1702;-64
2020/12/19 05:29:43;;;;;;;;;;;;;;;;;;5027877;28;1540;-63
2020/12/19 05:32:08;;;;;;;;;;;;;;;;;;5036748;28;1906;-64
2020/12/19 05:34:33;;;;;;;;;;;;;;;;;;5030684;28;815;-63
2020/12/19 05:36:58;;;;;;;;;;;;;;;;;;5030964;28;815;-63
2020/12/19 05:39:23;;;;;;;;;;;;;;;;;;5034072;28;1446;-65
2020/12/19 05:41:49;;;;;;;;;;;;;;;;;;5043874;28;1458;-64
2020/12/19 05:44:14;;;;;;;;;;;;;;;;;;5046276;28;1478;-63
2020/12/19 05:46:39;;;;;;;;;;;;;;;;;;5051458;28;827;-63
2020/12/19 05:49:04;;;;;;;;;;;;;;;;;;5038099;28;1710;-63
2020/12/19 05:51:29;;;;;;;;;;;;;;;;;;5030132;28;2009;-63
2020/12/19 05:53:54;;;;;;;;;;;;;;;;;;5030222;28;1610;-64
2020/12/19 05:56:20;;;;;;;;;;;;;;;;;;5044036;28;1466;-61
2020/12/19 05:58:45;;;;;;;;;;;;;;;;;;5031595;28;1493;-63
2020/12/19 06:01:10;;;;;;;;;;;;;;;;;;5029638;28;1720;-63
2020/12/19 06:03:35;;;;;;;;;;;;;;;;;;5018254;28;1637;-64
2020/12/19 06:06:00;;;;;;;;;;;;;;;;;;5004977;28;11111;-63
2020/12/19 06:08:26;;;;;;;;;;;;;;;;;;5029923;28;1478;-64
2020/12/19 06:10:51;;;;;;;;;;;;;;;;;;5031385;28;1918;-63
2020/12/19 06:13:16;;;;;;;;;;;;;;;;;;5031687;28;815;-63
2020/12/19 06:15:42;;;;;;;;;;;;;;;;;;5032206;28;828;-63
2020/12/19 06:18:07;;;;;;;;;;;;;;;;;;5034682;28;1455;-63
2020/12/19 06:20:32;;;;;;;;;;;;;;;;;;5031023;28;1631;-64
2020/12/19 06:22:58;;;;;;;;;;;;;;;;;;5048617;28;1402;-63
2020/12/19 06:25:23;;;;;;;;;;;;;;;;;;5041111;28;1435;-62
2020/12/19 06:27:48;;;;;;;;;;;;;;;;;;5030926;28;1600;-65
2020/12/19 06:30:13;;;;;;;;;;;;;;;;;;5030421;28;1418;-63
2020/12/19 06:32:38;;;;;;;;;;;;;;;;;;5029893;28;1977;-63
2020/12/19 06:35:04;;;;;;;;;;;;;;;;;;5028139;28;1534;-63
2020/12/19 06:37:29;;;;;;;;;;;;;;;;;;5029563;28;1501;-64
2020/12/19 06:39:54;;;;;;;;;;;;;;;;;;5029590;28;1637;-63
2020/12/19 06:42:19;;;;;;;;;;;;;;;;;;5060142;28;1517;-66
2020/12/19 06:44:45;;;;;;;;;;;;;;;;;;5028992;28;1458;-63
2020/12/19 06:47:10;;;;;;;;;;;;;;;;;;5029356;28;1434;-66
2020/12/19 06:49:35;;;;;;;;;;;;;;;;;;5043304;28;1492;-65
2020/12/19 06:52:00;;;;;;;;;;;;;;;;;;5029955;28;1882;-65
2020/12/19 06:54:25;;;;;;;;;;;;;;;;;;5036095;28;1518;-64
2020/12/19 06:56:50;;;;;;;;;;;;;;;;;;5036490;28;1625;-66
2020/12/19 06:59:16;;;;;;;;;;;;;;;;;;5030645;28;1522;-66
2020/12/19 07:01:41;;;;;;;;;;;;;;;;;;5027880;28;1633;-63
2020/12/19 07:04:06;;;;;;;;;;;;;;;;;;5028322;28;1513;-65
2020/12/19 07:06:31;;;;;;;;;;;;;;;;;;5027677;28;1647;-64
2020/12/19 07:08:56;;;;;;;;;;;;;;;;;;5028789;28;1627;-63
2020/12/19 07:11:21;;;;;;;;;;;;;;;;;;5028960;28;1969;-64
2020/12/19 07:13:46;;;;;;;;;;;;;;;;;;5042784;28;1528;-64
2020/12/19 07:16:12;;;;;;;;;;;;;;;;;;5034085;28;1611;-63
2020/12/19 07:18:37;;;;;;;;;;;;;;;;;;5037405;28;1507;-64
2020/12/19 07:21:02;;;;;;;;;;;;;;;;;;5033703;28;1546;-63
2020/12/19 07:23:27;;;;;;;;;;;;;;;;;;5028948;28;1787;-63
2020/12/19 07:25:52;;;;;;;;;;;;;;;;;;5028448;28;1486;-63
2020/12/19 07:28:17;;;;;;;;;;;;;;;;;;5032708;28;1607;-66
2020/12/19 07:30:43;;;;;;;;;;;;;;;;;;5040904;28;1459;-63
2020/12/19 07:33:08;;;;;;;;;;;;;;;;;;5028229;28;1886;-62
2020/12/19 07:35:33;;;;;;;;;;;;;;;;;;5067068;28;1179;-63
2020/12/19 07:37:58;;;;;;;;;;;;;;;;;;5069710;28;933;-62
2020/12/19 07:40:23;;;;;;;;;;;;;;;;;;5070018;28;878;-63
2020/12/19 07:42:49;;;;;;;;;;;;;;;;;;5048088;28;1713;-61
2020/12/19 07:45:14;;;;;;;;;;;;;;;;;;5036831;28;1680;-60
2020/12/19 07:47:39;;;;;;;;;;;;;;;;;;5028187;28;1516;-62
2020/12/19 07:50:04;;;;;;;;;;;;;;;;;;5039702;28;1423;-59
2020/12/19 07:52:29;;;;;;;;;;;;;;;;;;5036064;28;1899;-60
2020/12/19 07:54:54;;;;;;;;;;;;;;;;;;5027738;28;1396;-63
2020/12/19 07:57:20;;;;;;;;;;;;;;;;;;5043050;28;1483;-61
2020/12/19 07:59:45;;;;;;;;;;;;;;;;;;5029045;28;851;-61
2020/12/19 08:02:10;;;;;;;;;;;;;;;;;;5027999;28;873;-60
2020/12/19 08:04:35;;;;;;;;;;;;;;;;;;5029255;28;835;-59
2020/12/19 08:07:00;;;;;;;;;;;;;;;;;;5027836;28;1665;-62
2020/12/19 08:09:25;;;;;;;;;;;;;;;;;;5029335;28;898;-62
2020/12/19 08:11:51;;;;;;;;;;;;;;;;;;5027010;28;1906;-62
2020/12/19 08:14:16;;;;;;;;;;;;;;;;;;5030327;28;916;-61
2020/12/19 08:16:41;;;;;;;;;;;;;;;;;;5045639;28;1071;-61
2020/12/19 08:19:06;;;;;;;;;;;;;;;;;;5055911;28;1621;-61
2020/12/19 08:21:31;;;;;;;;;;;;;;;;;;5058654;28;1191;-62
2020/12/19 08:23:57;;;;;;;;;;;;;;;;;;5040297;28;2035;-62
2020/12/19 08:26:22;;;;;;;;;;;;;;;;;;5048322;28;1312;-62
2020/12/19 08:28:47;;;;;;;;;;;;;;;;;;5051966;28;1523;-62
2020/12/19 08:31:12;;;;;;;;;;;;;;;;;;5053199;28;1894;-62
2020/12/19 08:33:37;;;;;;;;;;;;;;;;;;5028664;28;1439;-62
2020/12/19 08:36:02;;;;;;;;;;;;;;;;;;5027274;28;1552;-62
2020/12/19 08:38:28;;;;;;;;;;;;;;;;;;5045627;28;1584;-62
2020/12/19 08:40:55;;;;;;;;;;;;;;;;;;5044403;28;1450;-62
2020/12/19 08:43:20;;;;;;;;;;;;;;;;;;5043330;28;1458;-63
2020/12/19 08:45:46;;;;;;;;;;;;;;;;;;5028001;28;1608;-61
2020/12/19 08:48:11;;;;;;;;;;;;;;;;;;5049627;28;1722;-62
2020/12/19 08:50:37;;;;;;;;;;;;;;;;;;5028811;28;1578;-61
2020/12/19 08:53:02;;;;;;;;;;;;;;;;;;5055770;28;1925;-61
2020/12/19 08:55:27;;;;;;;;;;;;;;;;;;5027480;28;1693;-61
2020/12/19 08:57:52;;;;;;;;;;;;;;;;;;5027174;28;851;-61
2020/12/19 09:00:17;;;;;;;;;;;;;;;;;;5028183;28;958;-61
2020/12/19 09:02:42;;;;;;;;;;;;;;;;;;5030521;28;1497;-63
2020/12/19 09:05:08;;;;;;;;;;;;;;;;;;5029019;28;1721;-63
2020/12/19 09:07:33;;;;;;;;;;;;;;;;;;5027690;28;899;-63
2020/12/19 09:09:58;;;;;;;;;;;;;;;;;;5035579;28;1443;-62
2020/12/19 09:12:23;;;;;;;;;;;;;;;;;;5054182;28;1973;-62
2020/12/19 09:14:49;;;;;;;;;;;;;;;;;;5047663;28;1462;-61
2020/12/19 09:17:14;;;;;;;;;;;;;;;;;;5053121;28;1439;-62
2020/12/19 09:19:39;;;;;;;;;;;;;;;;;;5050535;28;1332;-62
2020/12/19 09:22:04;;;;;;;;;;;;;;;;;;5051108;28;1423;-63
2020/12/19 09:24:29;;;;;;;;;;;;;;;;;;5052272;28;1411;-62
2020/12/19 09:26:54;;;;;;;;;;;;;;;;;;5056822;28;1395;-62
2020/12/19 09:29:19;;;;;;;;;;;;;;;;;;5063446;28;1144;-62
2020/12/19 09:31:45;;;;;;;;;;;;;;;;;;5057994;28;1878;-61
2020/12/19 09:34:10;;;;;;;;;;;;;;;;;;5040219;28;1460;-60
2020/12/19 09:36:35;;;;;;;;;;;;;;;;;;5047690;28;1499;-64
2020/12/19 09:39:00;;;;;;;;;;;;;;;;;;5049315;28;1438;-62
2020/12/19 09:41:25;;;;;;;;;;;;;;;;;;5066329;28;1405;-62
2020/12/19 09:43:50;;;;;;;;;;;;;;;;;;5058383;28;1759;-62
2020/12/19 09:46:17;;;;;;;;;;;;;;;;;;5049373;28;1109;-63
2020/12/19 09:48:43;;;;;;;;;;;;;;;;;;5067550;28;866;-61
2020/12/19 09:51:09;;;;;;;;;;;;;;;;;;5056992;28;1946;-61
2020/12/19 09:53:34;;;;;;;;;;;;;;;;;;5032455;28;1584;-61
2020/12/19 09:56:00;;;;;;;;;;;;;;;;;;5024958;28;1658;-62
2020/12/19 09:58:25;;;;;;;;;;;;;;;;;;5026145;28;1541;-62
2020/12/19 10:00:50;;;;;;;;;;;;;;;;;;5042201;28;1513;-61
2020/12/19 10:03:15;;;;;;;;;;;;;;;;;;5035589;28;1607;-61
2020/12/19 10:05:41;;;;;;;;;;;;;;;;;;5027360;28;1349;-62
2020/12/19 10:08:06;;;;;;;;;;;;;;;;;;5026573;28;820;-61
2020/12/19 10:10:34;;;;;;;;;;;;;;;;;;5027350;28;800;-61
2020/12/19 10:12:59;;;;;;;;;;;;;;;;;;5028063;28;1971;-61
2020/12/19 10:15:24;;;;;;;;;;;;;;;;;;5044706;28;1393;-62
2020/12/19 10:17:49;;;;;;;;;;;;;;;;;;5047957;28;1450;-63
2020/12/19 10:20:14;;;;;;;;;;;;;;;;;;5049151;28;1403;-63
2020/12/19 10:22:40;;;;;;;;;;;;;;;;;;5029525;28;1493;-63
2020/12/19 10:25:05;;;;;;;;;;;;;;;;;;5032917;28;1006;-61
2020/12/19 10:27:30;;;;;;;;;;;;;;;;;;5043636;28;1482;-62
2020/12/19 10:29:55;;;;;;;;;;;;;;;;;;5031053;28;840;-61
2020/12/19 10:32:20;;;;;;;;;;;;;;;;;;5048492;28;1957;-64
2020/12/19 10:34:45;;;;;;;;;;;;;;;;;;5050969;28;823;-62
2020/12/19 10:37:11;;;;;;;;;;;;;;;;;;5033156;28;1387;-62
2020/12/19 10:39:36;;;;;;;;;;;;;;;;;;5030311;28;1551;-61
2020/12/19 10:42:01;;;;;;;;;;;;;;;;;;5035343;28;1674;-62
2020/12/19 10:44:26;;;;;;;;;;;;;;;;;;5052198;28;1400;-61
2020/12/19 10:46:51;;;;;;;;;;;;;;;;;;5055638;28;1602;-62
2020/12/19 10:49:17;;;;;;;;;;;;;;;;;;5059596;28;1005;-59
2020/12/19 10:51:42;;;;;;;;;;;;;;;;;;5045342;28;1886;-60
2020/12/19 10:54:07;;;;;;;;;;;;;;;;;;5030399;28;1431;-61
2020/12/19 10:56:32;;;;;;;;;;;;;;;;;;5029901;28;1555;-61
2020/12/19 10:58:58;;;;;;;;;;;;;;;;;;5047487;28;1490;-60
2020/12/19 11:01:23;;;;;;;;;;;;;;;;;;5037744;28;1498;-60
2020/12/19 11:03:48;;;;;;;;;;;;;;;;;;5031995;28;1616;-60
2020/12/19 11:06:13;;;;;;;;;;;;;;;;;;5039920;28;1579;-60
2020/12/19 11:08:38;;;;;;;;;;;;;;;;;;5045460;28;1570;-60
2020/12/19 11:11:03;;;;;;;;;;;;;;;;;;5043975;28;1988;-61
2020/12/19 11:13:29;;;;;;;;;;;;;;;;;;5050047;28;1541;-61
2020/12/19 11:15:54;;;;;;;;;;;;;;;;;;5059460;28;1211;-60
2020/12/19 11:18:19;;;;;;;;;;;;;;;;;;5054522;28;1824;-61
2020/12/19 11:20:44;;;;;;;;;;;;;;;;;;5062160;28;1588;-60
2020/12/19 11:23:10;;;;;;;;;;;;;;;;;;5056777;28;1551;-60
2020/12/19 11:25:35;;;;;;;;;;;;;;;;;;5040715;28;1610;-61
2020/12/19 11:28:00;;;;;;;;;;;;;;;;;;5029235;28;1602;-61
2020/12/19 11:30:25;;;;;;;;;;;;;;;;;;5033711;28;1646;-60
2020/12/19 11:32:53;;;;;;;;;;;;;;;;;;5048931;28;1929;-59
2020/12/19 11:35:18;;;;;;;;;;;;;;;;;;5040123;28;1622;-61
2020/12/19 11:37:43;;;;;;;;;;;;;;;;;;5047881;28;1485;-62
2020/12/19 11:40:08;;;;;;;;;;;;;;;;;;5030151;28;1544;-60
2020/12/19 11:42:33;;;;;;;;;;;;;;;;;;5040032;28;1499;-62
2020/12/19 11:44:59;;;;;;;;;;;;;;;;;;5029829;28;1415;-62
2020/12/19 11:47:24;;;;;;;;;;;;;;;;;;5041342;28;1610;-61
2020/12/19 11:49:49;;;;;;;;;;;;;;;;;;5049773;28;984;-60
2020/12/19 11:52:14;;;;;;;;;;;;;;;;;;5049028;28;1947;-61
2020/12/19 11:54:39;;;;;;;;;;;;;;;;;;5037546;28;1456;-60
2020/12/19 11:57:04;;;;;;;;;;;;;;;;;;5029073;28;899;-61
2020/12/19 11:59:29;;;;;;;;;;;;;;;;;;5028973;28;847;-61
2020/12/19 12:01:55;;;;;;;;;;;;;;;;;;5029635;28;839;-60
2020/12/19 12:04:20;;;;;;;;;;;;;;;;;;5041361;28;1522;-61
2020/12/19 12:06:45;;;;;;;;;;;;;;;;;;5049543;28;811;-60
2020/12/19 12:09:11;;;;;;;;;;;;;;;;;;5049666;28;918;-60
2020/12/19 12:11:36;;;;;;;;;;;;;;;;;;5036533;28;1901;-62
2020/12/19 12:14:01;;;;;;;;;;;;;;;;;;5039540;28;1395;-61
2020/12/19 12:16:26;;;;;;;;;;;;;;;;;;5033126;28;1404;-60
2020/12/19 12:18:51;;;;;;;;;;;;;;;;;;5027908;28;1442;-60
2020/12/19 12:21:16;;;;;;;;;;;;;;;;;;5028096;28;1388;-61
2020/12/19 12:23:42;;;;;;;;;;;;;;;;;;5027721;28;1435;-60
2020/12/19 12:26:07;;;;;;;;;;;;;;;;;;5027225;28;1562;-61
2020/12/19 12:28:32;;;;;;;;;;;;;;;;;;5027891;28;1801;-61
2020/12/19 12:30:57;;;;;;;;;;;;;;;;;;5036858;28;898;-60
2020/12/19 12:33:22;;;;;;;;;;;;;;;;;;5027791;28;1957;-62
2020/12/19 12:35:47;;;;;;;;;;;;;;;;;;5029670;28;903;-61
2020/12/19 12:38:13;;;;;;;;;;;;;;;;;;5036041;28;1604;-60
2020/12/19 12:40:38;;;;;;;;;;;;;;;;;;5038830;28;1618;-60
2020/12/19 12:43:03;;;;;;;;;;;;;;;;;;5025611;28;1616;-61
2020/12/19 12:45:28;;;;;;;;;;;;;;;;;;5027489;28;1474;-62
2020/12/19 12:47:53;;;;;;;;;;;;;;;;;;5035699;28;1558;-62
2020/12/19 12:50:19;;;;;;;;;;;;;;;;;;5028171;28;1447;-61
2020/12/19 12:52:44;;;;;;;;;;;;;;;;;;5037995;28;1878;-61
2020/12/19 12:55:09;;;;;;;;;;;;;;;;;;5044602;28;1629;-61
2020/12/19 12:57:35;;;;;;;;;;;;;;;;;;5028127;28;1503;-60
2020/12/19 13:00:00;;;;;;;;;;;;;;;;;;5028424;28;1314;-60
2020/12/19 13:02:25;;;;;;;;;;;;;;;;;;5027839;28;851;-60
2020/12/19 13:04:50;;;;;;;;;;;;;;;;;;5029504;28;934;-60
2020/12/19 13:07:17;;;;;;;;;;;;;;;;;;5026825;28;1503;-60
2020/12/19 13:09:42;;;;;;;;;;;;;;;;;;5027484;28;1599;-61
2020/12/19 13:12:07;;;;;;;;;;;;;;;;;;5030534;28;1894;-61
2020/12/19 13:14:32;;;;;;;;;;;;;;;;;;5042733;28;1449;-61
2020/12/19 13:16:59;;;;;;;;;;;;;;;;;;5026127;28;1537;-61
2020/12/19 13:19:24;;;;;;;;;;;;;;;;;;5027506;28;1594;-61
2020/12/19 13:21:49;;;;;;;;;;;;;;;;;;5026114;28;1502;-62
2020/12/19 13:24:15;;;;;;;;;;;;;;;;;;5029620;28;1486;-62
2020/12/19 13:26:40;;;;;;;;;;;;;;;;;;5039757;28;1600;-62
2020/12/19 13:29:05;;;;;;;;;;;;;;;;;;5025772;28;1541;-62
2020/12/19 13:31:30;;;;;;;;;;;;;;;;;;5026072;28;1890;-60
2020/12/19 13:33:55;;;;;;;;;;;;;;;;;;5026834;28;1548;-61
2020/12/19 13:36:20;;;;;;;;;;;;;;;;;;5036043;28;1461;-60
2020/12/19 13:38:46;;;;;;;;;;;;;;;;;;5033411;28;1475;-61
2020/12/19 13:41:12;;;;;;;;;;;;;;;;;;5040366;28;1502;-60
2020/12/19 13:43:37;;;;;;;;;;;;;;;;;;5028265;28;1548;-60
2020/12/19 13:46:02;;;;;;;;;;;;;;;;;;5027562;28;910;-60
2020/12/19 13:48:27;;;;;;;;;;;;;;;;;;5030160;28;1509;-62
2020/12/19 13:50:54;;;;;;;;;;;;;;;;;;5035191;28;1451;-60
2020/12/19 13:53:19;;;;;;;;;;;;;;;;;;5026201;28;1874;-61
2020/12/19 13:55:44;;;;;;;;;;;;;;;;;;5034273;28;1442;-61
2020/12/19 13:58:10;;;;;;;;;;;;;;;;;;5049210;28;1630;-60
2020/12/19 14:00:35;;;;;;;;;;;;;;;;;;5049625;28;1611;-59
2020/12/19 14:03:00;;;;;;;;;;;;;;;;;;5035854;28;1670;-61
2020/12/19 14:05:25;;;;;;;;;;;;;;;;;;5030509;28;1552;-60
2020/12/19 14:07:50;;;;;;;;;;;;;;;;;;5031958;28;1682;-60
2020/12/19 14:10:16;;;;;;;;;;;;;;;;;;5041598;28;1482;-60
2020/12/19 14:12:41;;;;;;;;;;;;;;;;;;5034433;28;1901;-62
2020/12/19 14:15:06;;;;;;;;;;;;;;;;;;5029711;28;1629;-61
2020/12/19 14:17:32;;;;;;;;;;;;;;;;;;5028999;28;1507;-60
2020/12/19 14:19:57;;;;;;;;;;;;;;;;;;5029239;28;1466;-61
2020/12/19 14:22:22;;;;;;;;;;;;;;;;;;5031316;28;710;-63
2020/12/19 14:24:47;;;;;;;;;;;;;;;;;;5046576;28;2162;-60
2020/12/19 14:27:13;;;;;;;;;;;;;;;;;;5030867;28;1511;-61
2020/12/19 14:29:38;;;;;;;;;;;;;;;;;;5045131;28;1618;-61
2020/12/19 14:32:03;;;;;;;;;;;;;;;;;;5029274;28;1897;-60
2020/12/19 14:34:28;;;;;;;;;;;;;;;;;;5029830;28;1522;-60
2020/12/19 14:36:54;;;;;;;;;;;;;;;;;;5032607;28;1052;-62
2020/12/19 14:39:19;;;;;;;;;;;;;;;;;;5049554;28;1466;-60
2020/12/19 14:41:44;;;;;;;;;;;;;;;;;;5040140;28;1617;-61
2020/12/19 14:44:10;;;;;;;;;;;;;;;;;;5028698;28;1487;-61
2020/12/19 14:46:35;;;;;;;;;;;;;;;;;;5034690;28;1687;-61
2020/12/19 14:49:00;;;;;;;;;;;;;;;;;;5039126;28;1607;-61
2020/12/19 14:51:27;;;;;;;;;;;;;;;;;;5029269;28;1961;-61
2020/12/19 14:53:53;;;;;;;;;;;;;;;;;;5030221;28;1447;-61
2020/12/19 14:56:18;;;;;;;;;;;;;;;;;;5029220;28;1733;-60
2020/12/19 14:58:43;;;;;;;;;;;;;;;;;;5040831;28;1674;-61
2020/12/19 15:01:08;;;;;;;;;;;;;;;;;;5036089;28;1495;-61
2020/12/19 15:03:34;;;;;;;;;;;;;;;;;;5040789;28;1490;-62
2020/12/19 15:05:59;;;;;;;;;;;;;;;;;;5049325;28;843;-61
2020/12/19 15:08:24;;;;;;;;;;;;;;;;;;5049513;28;814;-61
2020/12/19 15:10:49;;;;;;;;;;;;;;;;;;5051158;28;859;-60
2020/12/19 15:13:14;;;;;;;;;;;;;;;;;;5030172;28;1938;-60
2020/12/19 15:15:39;;;;;;;;;;;;;;;;;;5029365;28;1545;-60
2020/12/19 15:18:05;;;;;;;;;;;;;;;;;;5029314;28;1510;-60
2020/12/19 15:20:30;;;;;;;;;;;;;;;;;;5042116;28;1502;-62
2020/12/19 15:22:55;;;;;;;;;;;;;;;;;;5030558;28;1409;-61
2020/12/19 15:25:20;;;;;;;;;;;;;;;;;;5043100;28;1516;-61
2020/12/19 15:27:46;;;;;;;;;;;;;;;;;;5029956;28;1388;-61
2020/12/19 15:30:11;;;;;;;;;;;;;;;;;;5028998;28;1497;-60
2020/12/19 15:32:36;;;;;;;;;;;;;;;;;;5032037;28;1870;-60
2020/12/19 15:35:02;;;;;;;;;;;;;;;;;;5040452;28;1511;-62
2020/12/19 15:37:27;;;;;;;;;;;;;;;;;;5028845;28;1583;-60
2020/12/19 15:39:52;;;;;;;;;;;;;;;;;;5040489;28;1490;-60
2020/12/19 15:42:17;;;;;;;;;;;;;;;;;;5031404;28;1562;-60
2020/12/19 15:44:43;;;;;;;;;;;;;;;;;;5028804;28;1574;-61
2020/12/19 15:47:08;;;;;;;;;;;;;;;;;;5040477;28;1507;-60
2020/12/19 15:49:34;;;;;;;;;;;;;;;;;;5031041;28;1582;-62
2020/12/19 15:51:59;;;;;;;;;;;;;;;;;;5046695;28;1903;-60
2020/12/19 15:54:24;;;;;;;;;;;;;;;;;;5040127;28;1468;-61
2020/12/19 15:56:49;;;;;;;;;;;;;;;;;;5032850;28;1523;-61
2020/12/19 15:59:15;;;;;;;;;;;;;;;;;;5027512;28;1463;-59
2020/12/19 16:01:41;;;;;;;;;;;;;;;;;;5043163;28;1703;-60
2020/12/19 16:04:06;;;;;;;;;;;;;;;;;;5030284;28;1502;-60
2020/12/19 16:06:31;;;;;;;;;;;;;;;;;;5049059;28;851;-61
2020/12/19 16:08:56;;;;;;;;;;;;;;;;;;5051772;28;1124;-61
2020/12/19 16:11:22;;;;;;;;;;;;;;;;;;5049147;28;1911;-62
2020/12/19 16:13:47;;;;;;;;;;;;;;;;;;5039324;28;1428;-62
2020/12/19 16:16:12;;;;;;;;;;;;;;;;;;5028373;28;1555;-61
2020/12/19 16:18:37;;;;;;;;;;;;;;;;;;5034453;28;1479;-61
2020/12/19 16:21:02;;;;;;;;;;;;;;;;;;5047962;28;815;-60
2020/12/19 16:23:27;;;;;;;;;;;;;;;;;;5047819;28;874;-61
2020/12/19 16:25:53;;;;;;;;;;;;;;;;;;5046432;28;1436;-61
2020/12/19 16:28:18;;;;;;;;;;;;;;;;;;5043656;28;1527;-61
2020/12/19 16:30:43;;;;;;;;;;;;;;;;;;5028512;28;1048;-62
2020/12/19 16:33:10;;;;;;;;;;;;;;;;;;5027764;28;1911;-60
2020/12/19 16:35:35;;;;;;;;;;;;;;;;;;5029617;28;1580;-60
2020/12/19 16:38:01;;;;;;;;;;;;;;;;;;5035248;28;1645;-61
2020/12/19 16:40:26;;;;;;;;;;;;;;;;;;4893483;28;13666;-61
2020/12/19 16:42:51;;;;;;;;;;;;;;;;;;5032722;28;1593;-61
2020/12/19 16:45:17;;;;;;;;;;;;;;;;;;5034889;28;1634;-61
2020/12/19 16:47:42;;;;;;;;;;;;;;;;;;5045129;28;1568;-61
2020/12/19 16:50:07;;;;;;;;;;;;;;;;;;5027176;28;1518;-61